Death Valley, California
Current Conditions -  °F | °C
As of 10:52 AM on Sunday 21 Dec 2014 (Local Time) from KDRA Reporting Station
Clear Clear  
Wind Chill: 48°   Ceiling: Unl
Heat Index: 48°   Visibility: 10mi
Dew Point: 37°   Wind: 3mph
Humidity: 66%   Direction: 200°SSW
Pressure: 30.17"   Gusts: NA
Location:  36.46°N, 116.87°W
Report Text: KDRA 211852Z AUTO 20003KT 10SM CLR 09/03 A3017 RMK AO2 SLP210 T00890028 $
Loading
Personal Weather Stations






























Interactive Weather Map New forecast layout! Learn more

10-Day Weather Forecast

Advertisements
Track Severe Weather on mobile